Time;durP1;ratioP1;P1;durP2;ratioP2;P2;SDS_P1;SDS_P2;PMS_P1;PMS_P2;Temp;Humidity;BMP_temperature;BMP_pressure;BME280_temperature;BME280_humidity;BME280_pressure;Samples;Min_cycle;Max_cycle;Signal;HPM_P1;HPM_P2
2022/12/27 00:02:39;;;;;;;8.70;5.70;;;;;;;8.99;90.76;99758.48;126211;1298;107522;-75
2022/12/27 00:05:46;;;;;;;10.50;7.20;;;;;;;9.00;90.66;99752.79;126217;1306;107748;-76
2022/12/27 00:08:52;;;;;;;10.70;6.30;;;;;;;9.00;90.62;99743.11;126190;1301;107470;-76
2022/12/27 00:11:57;;;;;;;8.30;6.20;;;;;;;9.03;90.63;99751.15;126177;1307;108764;-76
2022/12/27 00:15:04;;;;;;;8.90;6.50;;;;;;;9.05;90.50;99751.86;126261;1302;106579;-75
2022/12/27 00:18:09;;;;;;;9.20;6.10;;;;;;;9.03;90.51;99752.74;126199;1302;107899;-75
2022/12/27 00:21:16;;;;;;;7.80;5.50;;;;;;;9.02;90.47;99752.57;126188;1302;107364;-75
2022/12/27 00:24:22;;;;;;;8.60;6.10;;;;;;;9.03;90.57;99754.91;126216;1302;107979;-76
2022/12/27 00:27:28;;;;;;;11.60;6.40;;;;;;;9.06;90.51;99751.31;126243;1298;107516;-76
2022/12/27 00:30:34;;;;;;;9.80;6.40;;;;;;;9.06;90.45;99752.48;126097;1302;107246;-76
2022/12/27 00:33:42;;;;;;;9.50;6.50;;;;;;;9.06;90.42;99751.06;126211;1302;107470;-76
2022/12/27 00:36:48;;;;;;;9.10;6.50;;;;;;;9.03;90.23;99749.05;126183;1293;107671;-76
2022/12/27 00:39:53;;;;;;;8.30;5.40;;;;;;;8.99;90.19;99752.95;126175;1305;106533;-76
2022/12/27 00:42:59;;;;;;;7.30;4.50;;;;;;;8.98;90.39;99759.50;126192;1308;107473;-76
2022/12/27 00:46:06;;;;;;;8.90;6.10;;;;;;;8.99;90.48;99757.81;126192;1302;107545;-76
2022/12/27 00:49:12;;;;;;;8.70;5.70;;;;;;;9.00;90.48;99746.48;126282;1302;107494;-75
2022/12/27 00:52:17;;;;;;;8.10;5.80;;;;;;;9.02;90.25;99745.38;126207;1298;108669;-75
2022/12/27 00:55:23;;;;;;;10.30;6.00;;;;;;;9.02;90.36;99756.52;126183;1301;107464;-75
2022/12/27 00:58:28;;;;;;;7.90;5.70;;;;;;;9.02;90.34;99761.98;126221;1295;107542;-73
2022/12/27 01:01:35;;;;;;;7.00;4.60;;;;;;;8.99;90.28;99766.86;126141;1301;107186;-73
2022/12/27 01:04:41;;;;;;;6.60;4.40;;;;;;;8.98;90.45;99761.77;126227;1306;107526;-76
2022/12/27 01:07:47;;;;;;;8.30;4.80;;;;;;;9.00;90.20;99767.83;126207;1302;107503;-75
2022/12/27 01:10:52;;;;;;;7.60;5.40;;;;;;;9.02;90.40;99767.05;126263;1303;107464;-75
2022/12/27 01:13:59;;;;;;;7.60;5.10;;;;;;;9.08;90.35;99767.05;126234;1302;107562;-75
2022/12/27 01:17:05;;;;;;;8.70;5.60;;;;;;;9.11;90.20;99765.01;126287;1292;107643;-74
2022/12/27 01:20:11;;;;;;;6.30;4.50;;;;;;;9.10;90.24;99767.13;126222;1307;107466;-75
2022/12/27 01:23:17;;;;;;;6.80;4.00;;;;;;;9.07;90.19;99774.19;126204;1301;107386;-76
2022/12/27 01:26:24;;;;;;;6.00;3.90;;;;;;;9.05;90.21;99769.83;126202;1301;106812;-74
2022/12/27 01:29:30;;;;;;;8.40;5.00;;;;;;;9.06;90.27;99774.56;125785;1301;634579;-75
2022/12/27 01:32:36;;;;;;;7.20;4.40;;;;;;;9.08;90.27;99771.14;126271;1301;107346;-75
2022/12/27 01:35:41;;;;;;;8.70;4.80;;;;;;;9.08;90.33;99769.85;126253;1302;106712;-75
2022/12/27 01:38:48;;;;;;;7.70;4.50;;;;;;;9.08;90.33;99771.68;126263;1302;107697;-75
2022/12/27 01:45:18;;;;;;;6.60;3.70;;;;;;;9.02;90.47;99781.61;126195;1301;108208;-75
2022/12/27 01:48:25;;;;;;;7.00;4.20;;;;;;;9.01;90.58;99777.95;126346;1297;107531;-75
2022/12/27 01:51:31;;;;;;;7.00;4.80;;;;;;;9.04;90.72;99775.73;126277;1302;107707;-74
2022/12/27 01:54:36;;;;;;;7.10;4.80;;;;;;;9.07;90.70;99781.88;126216;1298;107460;-75
2022/12/27 01:57:43;;;;;;;7.40;5.00;;;;;;;9.02;90.54;99779.77;126250;1302;107247;-75
2022/12/27 02:00:50;;;;;;;9.20;5.30;;;;;;;8.95;90.57;99783.24;126220;1301;107322;-75
2022/12/27 02:03:59;;;;;;;5.10;3.90;;;;;;;8.88;90.59;99787.10;126242;1307;107399;-77
2022/12/27 02:07:06;;;;;;;6.50;4.40;;;;;;;8.81;90.22;99795.15;126198;1295;107373;-75
2022/12/27 02:10:12;;;;;;;6.10;3.80;;;;;;;8.73;89.87;99792.22;126209;1302;107395;-76
2022/12/27 02:13:18;;;;;;;5.50;3.60;;;;;;;8.64;89.55;99788.04;126245;1302;107568;-75
2022/12/27 02:16:24;;;;;;;6.70;3.50;;;;;;;8.53;89.80;99790.63;126258;1303;108645;-75
2022/12/27 02:19:41;;;;;;;3.90;3.00;;;;;;;8.42;89.62;99790.91;126247;1298;107575;-76
2022/12/27 02:27:01;;;;;;;5.10;3.00;;;;;;;8.17;89.65;99787.73;126227;1301;106622;-76
2022/12/27 02:30:09;;;;;;;4.40;3.10;;;;;;;8.08;89.76;99790.66;126242;1301;107522;-75
2022/12/27 02:33:20;;;;;;;4.80;3.20;;;;;;;8.01;89.86;99795.73;126269;1298;107569;-75
2022/12/27 02:36:30;;;;;;;4.70;3.60;;;;;;;7.94;90.09;99795.77;126223;1301;106201;-75
2022/12/27 02:39:39;;;;;;;4.10;3.10;;;;;;;7.82;90.31;99799.20;126159;1301;107351;-76
2022/12/27 02:53:13;;;;;;;4.80;2.80;;;;;;;7.89;90.35;99809.35;126188;1302;107779;-74
2022/12/27 03:03:50;;;;;;;3.40;2.30;;;;;;;7.48;89.28;99912.60;126225;1301;107706;-75
2022/12/27 03:07:09;;;;;;;3.20;1.80;;;;;;;6.63;88.07;99914.12;126206;1303;107293;-75
2022/12/27 03:17:32;;;;;;;;;;;;;;;5.32;90.40;99949.48;126184;1301;107561;-74
2022/12/27 03:27:44;;;;;;;3.90;1.00;;;;;;;4.62;91.02;99964.81;126178;1301;107389;-75
2022/12/27 03:34:34;;;;;;;2.70;0.90;;;;;;;4.45;90.74;99992.21;126236;1301;107269;-73
2022/12/27 03:44:47;;;;;;;5.20;1.90;;;;;;;4.35;90.75;100007.96;126223;1294;107362;-74
2022/12/27 03:48:05;;;;;;;3.80;0.90;;;;;;;4.27;90.62;100013.67;126313;1302;107565;-74
2022/12/27 03:51:12;;;;;;;3.60;1.00;;;;;;;4.24;90.91;100016.58;126251;1302;107397;-74
2022/12/27 03:54:25;;;;;;;2.20;1.10;;;;;;;4.22;90.80;100017.39;126279;1295;107356;-73
2022/12/27 03:57:31;;;;;;;6.30;0.90;;;;;;;4.18;90.69;100023.16;126256;1292;107399;-74
2022/12/27 04:00:37;;;;;;;3.30;0.70;;;;;;;4.11;90.67;100023.19;126206;1298;107279;-74
2022/12/27 04:03:42;;;;;;;4.00;0.80;;;;;;;4.05;90.56;100029.11;126224;1301;107262;-74
2022/12/27 04:06:48;;;;;;;2.30;1.00;;;;;;;4.02;90.37;100030.20;126195;1298;107698;-74
2022/12/27 04:37:01;;;;;;;43.30;14.20;;;;;;;4.23;89.39;100076.70;126217;1302;107552;-75
2022/12/27 04:57:12;;;;;;;144.00;29.60;;;;;;;4.29;88.91;100126.71;126211;1301;107608;-76
2022/12/27 05:03:44;;;;;;;354.90;76.40;;;;;;;4.28;88.72;100133.17;126205;1301;108749;-75
2022/12/27 05:06:50;;;;;;;17.00;6.50;;;;;;;4.25;88.76;100130.95;126237;1298;108650;-74
2022/12/27 05:16:58;;;;;;;91.20;24.60;;;;;;;4.26;88.75;100145.63;125815;1307;108737;-75
2022/12/27 05:20:04;;;;;;;34.50;10.10;;;;;;;4.30;88.48;100144.09;126197;1301;108716;-75
2022/12/27 05:26:34;;;;;;;76.70;18.90;;;;;;;4.14;87.81;100148.16;126293;1295;107650;-75
2022/12/27 05:29:39;;;;;;;490.00;121.30;;;;;;;4.03;88.18;100152.15;126225;1301;107478;-76
2022/12/27 05:32:45;;;;;;;594.10;155.70;;;;;;;4.00;88.38;100157.29;126216;1301;107533;-75
2022/12/27 05:35:50;;;;;;;407.20;92.60;;;;;;;3.97;88.32;100153.45;126248;1295;107526;-75
2022/12/27 05:38:56;;;;;;;270.00;61.80;;;;;;;3.99;88.40;100163.17;126199;1301;107617;-77
2022/12/27 05:42:02;;;;;;;368.50;92.70;;;;;;;4.00;88.20;100170.09;126232;1301;108681;-76
2022/12/27 05:45:09;;;;;;;810.30;268.30;;;;;;;3.98;88.24;100174.69;126250;1301;107456;-76
2022/12/27 05:48:14;;;;;;;1293.50;447.80;;;;;;;3.96;88.19;100171.32;126252;1301;107267;-76
2022/12/27 05:51:21;;;;;;;67.20;17.80;;;;;;;3.91;88.12;100180.41;126183;1301;105520;-75
2022/12/27 05:54:27;;;;;;;1044.50;355.00;;;;;;;3.88;88.15;100179.25;126253;1301;107553;-74
2022/12/27 05:57:32;;;;;;;1349.00;445.30;;;;;;;3.90;88.39;100178.02;126193;1301;107618;-72
2022/12/27 06:00:38;;;;;;;1586.50;532.90;;;;;;;3.98;88.39;100179.98;126208;1301;106642;-72
2022/12/27 06:03:44;;;;;;;395.60;230.30;;;;;;;4.01;88.14;100189.64;126393;1277;105586;-74
2022/12/27 06:06:50;;;;;;;84.40;36.90;;;;;;;4.00;88.04;100191.45;126547;1287;107652;-71
2022/12/27 06:09:56;;;;;;;43.00;19.40;;;;;;;3.99;88.10;100201.54;126650;1285;107504;-72
2022/12/27 06:13:02;;;;;;;22.40;8.50;;;;;;;3.98;88.01;100207.62;126356;1285;106524;-74
2022/12/27 06:16:11;;;;;;;9.70;3.40;;;;;;;3.92;87.88;100211.67;126565;1287;107530;-74
2022/12/27 06:19:17;;;;;;;4.30;2.00;;;;;;;3.85;88.00;100221.36;126679;1292;107410;-73
2022/12/27 06:22:22;;;;;;;7.30;2.00;;;;;;;3.84;88.01;100231.46;126673;1291;107463;-73
2022/12/27 06:25:28;;;;;;;275.00;105.60;;;;;;;3.89;88.16;100240.07;126369;1285;107321;-73
2022/12/27 06:28:34;;;;;;;344.00;124.10;;;;;;;3.94;87.98;100238.30;126259;1301;107599;-74
2022/12/27 06:31:40;;;;;;;527.40;213.20;;;;;;;3.94;87.57;100249.95;126184;1293;107437;-74
2022/12/27 06:34:46;;;;;;;530.70;239.30;;;;;;;3.88;87.49;100256.49;126264;1301;106514;-72
2022/12/27 06:37:51;;;;;;;366.20;131.80;;;;;;;3.88;87.58;100261.83;126199;1293;107518;-73
2022/12/27 06:41:02;;;;;;;248.30;97.60;;;;;;;3.86;87.45;100267.05;126218;1295;107578;-74
2022/12/27 06:44:08;;;;;;;258.70;117.70;;;;;;;3.85;87.46;100274.70;126189;1309;107533;-74
2022/12/27 06:47:14;;;;;;;47.70;23.50;;;;;;;3.86;87.62;100283.23;126217;1301;107394;-75
2022/12/27 06:50:20;;;;;;;15.70;5.80;;;;;;;3.94;87.58;100288.86;126223;1302;106639;-74
2022/12/27 06:53:25;;;;;;;11.50;4.20;;;;;;;4.00;87.45;100296.70;126197;1301;107279;-74
2022/12/27 06:56:31;;;;;;;12.50;4.10;;;;;;;4.06;87.44;100299.74;126263;1300;107554;-75
2022/12/27 06:59:36;;;;;;;11.40;2.50;;;;;;;4.11;87.27;100305.73;126236;1284;108609;-75
2022/12/27 07:02:42;;;;;;;8.50;3.20;;;;;;;4.11;87.14;100314.35;126353;1301;107238;-75
2022/12/27 07:05:47;;;;;;;295.60;104.10;;;;;;;4.13;87.28;100315.82;126235;1301;107385;-74
2022/12/27 07:08:54;;;;;;;458.70;181.60;;;;;;;4.17;87.24;100314.11;126513;1286;105632;-73
2022/12/27 07:11:59;;;;;;;580.20;240.70;;;;;;;4.21;87.07;100317.86;126252;1301;107411;-73
2022/12/27 07:15:06;;;;;;;410.80;145.20;;;;;;;4.27;87.13;100324.31;126422;1293;105345;-72
2022/12/27 07:18:12;;;;;;;81.70;25.10;;;;;;;4.32;86.49;100327.11;126237;1298;107382;-70
2022/12/27 07:21:19;;;;;;;533.60;194.30;;;;;;;4.29;86.82;100333.63;126259;1301;106030;-72
2022/12/27 07:24:25;;;;;;;82.40;24.50;;;;;;;4.30;86.72;100340.45;126328;1302;107300;-71
2022/12/27 07:27:32;;;;;;;933.20;389.70;;;;;;;4.30;86.95;100344.67;126320;1293;107405;-72
2022/12/27 07:30:40;;;;;;;443.00;138.30;;;;;;;4.32;86.82;100352.08;126186;1298;107323;-71
2022/12/27 07:33:46;;;;;;;291.00;86.10;;;;;;;4.36;86.73;100355.89;126292;1293;107439;-74
2022/12/27 07:36:52;;;;;;;552.40;189.40;;;;;;;4.43;86.89;100352.58;126545;1292;105995;-74
2022/12/27 07:39:57;;;;;;;299.80;82.50;;;;;;;4.47;86.30;100357.04;126258;1295;108670;-75
2022/12/27 07:43:03;;;;;;;561.50;194.50;;;;;;;4.49;86.66;100357.76;126252;1295;107312;-75
2022/12/27 07:46:11;;;;;;;410.40;125.80;;;;;;;4.57;86.66;100361.81;126259;1295;108691;-73
2022/12/27 07:49:17;;;;;;;457.80;199.00;;;;;;;4.61;86.37;100365.91;126270;1301;107509;-74
2022/12/27 07:52:22;;;;;;;362.80;168.10;;;;;;;4.61;86.38;100375.59;126362;1292;107492;-73
2022/12/27 07:55:28;;;;;;;136.00;54.30;;;;;;;4.65;86.61;100378.26;126423;1295;106388;-72
2022/12/27 07:58:37;;;;;;;228.00;90.20;;;;;;;4.69;86.28;100382.21;126478;1293;107325;-71
2022/12/27 08:05:02;;;;;;;26.40;11.80;;;;;;;4.85;86.07;100383.02;126420;1301;107035;-74
2022/12/27 08:08:11;;;;;;;17.90;6.10;;;;;;;4.90;85.81;100389.85;126303;1298;107274;-72
2022/12/27 08:11:16;;;;;;;11.10;3.40;;;;;;;4.95;85.94;100389.65;126211;1301;107392;-71
2022/12/27 08:14:22;;;;;;;17.70;9.00;;;;;;;5.03;86.17;100395.05;126364;1292;108740;-72
2022/12/27 08:17:30;;;;;;;11.20;3.80;;;;;;;5.06;85.96;100397.48;126423;1301;107437;-71
2022/12/27 08:20:36;;;;;;;9.70;3.50;;;;;;;5.10;86.13;100405.31;126413;1301;107369;-77
2022/12/27 08:23:41;;;;;;;10.10;2.60;;;;;;;5.11;85.78;100409.96;126380;1301;108565;-74
2022/12/27 08:26:47;;;;;;;14.50;4.40;;;;;;;5.10;85.92;100413.06;126221;1302;108660;-76
2022/12/27 08:29:52;;;;;;;10.20;3.40;;;;;;;5.16;86.10;100415.27;126219;1295;107533;-77
2022/12/27 08:33:00;;;;;;;8.90;2.90;;;;;;;5.24;85.63;100419.44;126202;1301;107585;-74
2022/12/27 08:36:08;;;;;;;11.20;3.50;;;;;;;5.34;85.62;100423.06;126227;1301;106898;-75
2022/12/27 08:39:14;;;;;;;11.30;3.50;;;;;;;5.42;85.30;100420.70;126269;1302;107412;-76
2022/12/27 08:42:19;;;;;;;10.00;2.40;;;;;;;5.46;85.06;100422.66;126208;1301;107554;-74
2022/12/27 08:45:25;;;;;;;6.60;2.50;;;;;;;5.35;84.63;100425.27;126227;1301;107512;-71
2022/12/27 08:48:32;;;;;;;9.00;2.50;;;;;;;5.34;84.69;100423.24;126247;1301;107494;-73
2022/12/27 08:51:38;;;;;;;6.40;2.50;;;;;;;5.24;84.84;100419.77;126325;1301;106811;-70
2022/12/27 08:54:43;;;;;;;9.80;2.40;;;;;;;5.21;84.53;100421.26;126110;1301;108028;-74
2022/12/27 08:57:49;;;;;;;4.80;2.20;;;;;;;5.17;84.80;100428.93;126198;1302;107302;-73
2022/12/27 09:00:54;;;;;;;7.00;2.20;;;;;;;5.23;85.10;100432.38;126234;1301;108624;-73
2022/12/27 09:04:00;;;;;;;8.50;3.70;;;;;;;5.29;84.69;100429.27;126237;1298;105534;-71
2022/12/27 09:07:05;;;;;;;8.40;2.60;;;;;;;5.35;84.68;100435.90;126087;1301;107583;-71
2022/12/27 09:10:11;;;;;;;7.00;2.50;;;;;;;5.38;84.44;100433.58;126196;1301;107804;-71
2022/12/27 09:13:17;;;;;;;8.40;2.80;;;;;;;5.42;84.34;100434.14;126477;1308;107728;-73
2022/12/27 09:16:26;;;;;;;9.50;2.90;;;;;;;5.42;83.80;100444.32;126276;1302;109256;-72
2022/12/27 09:19:31;;;;;;;6.60;2.70;;;;;;;5.48;83.87;100440.88;126287;1301;107560;-72
2022/12/27 09:22:37;;;;;;;8.70;2.70;;;;;;;5.46;84.11;100450.40;126188;1300;108665;-72
2022/12/27 09:25:43;;;;;;;9.40;2.90;;;;;;;5.39;83.36;100457.63;126213;1294;107538;-70
2022/12/27 09:28:49;;;;;;;8.20;3.10;;;;;;;5.29;83.03;100459.43;126228;1301;106447;-71
2022/12/27 09:31:55;;;;;;;45.20;20.90;;;;;;;5.34;83.96;100467.52;126284;1295;108783;-72
2022/12/27 09:35:01;;;;;;;8.20;3.30;;;;;;;5.34;82.30;100476.00;126283;1301;107018;-71
2022/12/27 09:38:07;;;;;;;10.90;3.10;;;;;;;5.37;83.08;100476.52;126227;1295;107580;-71
2022/12/27 09:41:21;;;;;;;7.60;3.30;;;;;;;5.41;82.49;100477.41;126297;1301;108081;-71
2022/12/27 09:44:34;;;;;;;82.20;37.60;;;;;;;5.40;82.55;100478.16;126170;1301;108260;-71
2022/12/27 09:47:50;;;;;;;146.80;54.00;;;;;;;5.46;83.43;100478.06;126327;1294;108198;-69
2022/12/27 09:50:58;;;;;;;64.20;21.70;;;;;;;5.55;81.99;100484.71;126195;1301;108205;-70
2022/12/27 09:54:11;;;;;;;194.30;60.70;;;;;;;5.54;81.22;100492.20;126233;1302;108262;-71
2022/12/27 09:57:21;;;;;;;452.90;156.10;;;;;;;5.57;81.76;100496.84;126467;1302;108591;-74
2022/12/27 10:00:27;;;;;;;39.60;12.90;;;;;;;5.63;81.42;100501.03;126424;1301;107518;-73
2022/12/27 10:03:32;;;;;;;248.70;70.30;;;;;;;5.59;80.63;100504.16;126480;1301;107574;-73
2022/12/27 10:07:01;;;;;;;53.90;15.90;;;;;;;5.55;80.37;100505.02;126257;1301;107058;-72
2022/12/27 10:10:17;;;;;;;118.00;45.20;;;;;;;5.45;80.00;100507.95;126216;1301;108815;-73
2022/12/27 10:13:37;;;;;;;136.20;64.50;;;;;;;5.42;80.64;100501.17;126427;1301;108626;-73
2022/12/27 10:16:48;;;;;;;106.30;42.10;;;;;;;5.46;80.23;100499.56;126393;1301;108609;-73
2022/12/27 10:20:05;;;;;;;29.80;11.60;;;;;;;5.46;78.84;100501.58;126396;1301;107856;-73
2022/12/27 10:23:16;;;;;;;172.70;64.30;;;;;;;5.37;78.82;100506.61;126378;1295;107285;-74
2022/12/27 10:26:22;;;;;;;224.50;74.50;;;;;;;5.34;77.51;100508.29;126394;1301;107284;-73
2022/12/27 10:29:28;;;;;;;307.00;101.70;;;;;;;5.32;78.99;100512.63;126343;1295;108752;-74
2022/12/27 10:32:34;;;;;;;419.00;135.70;;;;;;;5.34;78.48;100520.45;126518;1293;108140;-73
2022/12/27 10:35:40;;;;;;;182.30;52.20;;;;;;;5.34;77.45;100531.06;126481;1293;106616;-75
2022/12/27 10:38:45;;;;;;;791.30;303.60;;;;;;;5.26;77.56;100535.35;126359;1294;107522;-76
2022/12/27 10:42:02;;;;;;;142.00;39.10;;;;;;;5.21;77.78;100527.41;126356;1301;108422;-75
2022/12/27 10:45:37;;;;;;;351.30;112.50;;;;;;;5.14;77.33;100522.29;126220;1301;107724;-75
2022/12/27 10:48:55;;;;;;;121.00;39.20;;;;;;;5.09;78.41;100535.52;126226;1301;107395;-73
2022/12/27 10:52:08;;;;;;;129.40;49.10;;;;;;;5.09;78.21;100538.29;126251;1301;107252;-73
2022/12/27 10:55:33;;;;;;;59.60;29.40;;;;;;;5.19;78.20;100540.06;126249;1301;106740;-73
2022/12/27 10:58:41;;;;;;;36.70;18.20;;;;;;;5.31;78.58;100534.96;126243;1301;107628;-74
2022/12/27 11:02:06;;;;;;;29.40;13.70;;;;;;;5.46;77.50;100539.13;126285;1301;107382;-76
2022/12/27 11:05:22;;;;;;;15.00;7.80;;;;;;;5.51;77.15;100538.05;126324;1308;107663;-76
2022/12/27 11:08:29;;;;;;;14.40;6.80;;;;;;;5.51;77.02;100538.11;126257;1302;107572;-76
2022/12/27 11:11:34;;;;;;;9.70;4.00;;;;;;;5.46;77.14;100539.84;126332;1295;108690;-76
2022/12/27 11:14:40;;;;;;;16.70;9.30;;;;;;;5.48;77.49;100535.65;126281;1292;107713;-76
2022/12/27 11:17:50;;;;;;;28.70;7.90;;;;;;;5.45;77.46;100528.80;126197;1287;106508;-76
2022/12/27 11:20:58;;;;;;;14.20;4.40;;;;;;;5.45;77.49;100522.23;126265;1293;107666;-76
2022/12/27 11:24:04;;;;;;;9.50;3.90;;;;;;;5.50;77.79;100530.39;126296;1288;107353;-76
2022/12/27 11:27:23;;;;;;;9.40;4.70;;;;;;;5.47;77.30;100519.79;126226;1302;107572;-76
2022/12/27 11:30:33;;;;;;;56.00;22.10;;;;;;;5.42;77.86;100519.71;126199;1285;107984;-76
2022/12/27 11:33:44;;;;;;;273.20;88.10;;;;;;;5.36;77.20;100519.11;126207;1287;108549;-76
2022/12/27 11:36:53;;;;;;;612.10;238.10;;;;;;;5.32;78.10;100516.38;126218;1291;107492;-76
2022/12/27 11:40:21;;;;;;;260.00;85.50;;;;;;;5.47;78.30;100515.10;126381;1287;107314;-76
2022/12/27 11:43:29;;;;;;;288.20;110.80;;;;;;;5.68;78.57;100516.86;126293;1301;107416;-76
2022/12/27 11:46:41;;;;;;;333.70;154.20;;;;;;;5.80;78.89;100524.07;126214;1301;107528;-78
2022/12/27 11:49:53;;;;;;;174.20;72.40;;;;;;;5.88;78.08;100528.60;126249;1301;108683;-78
2022/12/27 11:53:14;;;;;;;116.30;45.80;;;;;;;5.74;76.73;100541.52;126238;1302;107613;-76
2022/12/27 11:56:26;;;;;;;221.80;99.90;;;;;;;5.63;77.88;100540.71;126283;1301;107535;-76
2022/12/27 11:59:52;;;;;;;83.20;40.50;;;;;;;5.64;77.50;100546.50;126279;1298;107697;-76
2022/12/27 12:03:32;;;;;;;296.50;133.90;;;;;;;5.59;78.04;100549.02;126294;1301;107461;-76
2022/12/27 12:06:52;;;;;;;158.60;71.60;;;;;;;5.61;77.55;100555.48;126298;1301;108661;-76
2022/12/27 12:10:16;;;;;;;37.00;14.70;;;;;;;5.61;77.76;100558.73;126273;1295;108566;-76
2022/12/27 12:13:58;;;;;;;26.10;12.30;;;;;;;5.56;77.33;100561.93;126224;1301;108578;-76
2022/12/27 12:17:16;;;;;;;61.20;26.50;;;;;;;5.51;77.66;100558.58;126251;1300;107447;-77
2022/12/27 12:20:40;;;;;;;15.00;5.70;;;;;;;5.53;78.01;100560.67;126234;1301;107574;-76
2022/12/27 12:24:02;;;;;;;16.00;6.00;;;;;;;5.59;77.73;100554.45;126223;1294;108639;-76
2022/12/27 12:27:18;;;;;;;;;;;;;;;5.66;77.71;100556.88;126293;1301;107545;-76
2022/12/27 12:30:49;;;;;;;12.20;5.20;;;;;;;5.73;77.45;100556.73;126230;1301;107420;-76
2022/12/27 12:34:09;;;;;;;10.40;5.30;;;;;;;5.78;77.50;100556.73;126283;1301;107544;-76
2022/12/27 12:37:30;;;;;;;14.40;6.40;;;;;;;5.74;76.93;100560.23;126285;1301;108054;-76
2022/12/27 12:40:59;;;;;;;9.40;4.80;;;;;;;5.68;77.42;100554.11;126237;1302;107517;-78
2022/12/27 12:44:34;;;;;;;11.30;6.10;;;;;;;5.66;77.38;100565.04;126143;1302;107328;-75
2022/12/27 12:47:56;;;;;;;42.70;16.80;;;;;;;5.62;77.03;100565.86;126263;1301;107485;-76
2022/12/27 12:51:23;;;;;;;22.50;7.80;;;;;;;5.55;77.08;100563.57;126279;1302;107367;-76
2022/12/27 12:54:57;;;;;;;18.80;7.00;;;;;;;5.50;77.43;100558.63;126393;1302;108702;-75
2022/12/27 12:58:16;;;;;;;23.00;8.30;;;;;;;5.49;77.73;100561.88;127237;1290;107529;-76
2022/12/27 13:01:42;;;;;;;16.10;6.60;;;;;;;5.38;77.01;100562.50;126268;1307;107294;-76
2022/12/27 13:05:08;;;;;;;236.10;91.40;;;;;;;5.31;77.37;100564.42;126219;1301;106765;-76
2022/12/27 13:08:22;;;;;;;193.10;79.40;;;;;;;5.29;77.29;100563.30;126256;1304;107977;-76
2022/12/27 13:11:47;;;;;;;173.20;70.50;;;;;;;5.30;77.10;100561.86;126275;1301;107403;-76
2022/12/27 13:15:19;;;;;;;333.10;118.40;;;;;;;5.30;77.21;100559.16;126291;1301;107521;-76
2022/12/27 13:18:31;;;;;;;323.30;118.50;;;;;;;5.40;77.43;100561.79;126276;1304;108671;-76
2022/12/27 13:21:58;;;;;;;329.70;127.30;;;;;;;5.45;77.33;100562.48;126258;1302;106524;-76
2022/12/27 13:25:14;;;;;;;114.80;43.90;;;;;;;5.44;77.18;100570.49;126254;1293;107740;-76
2022/12/27 13:28:34;;;;;;;149.10;62.40;;;;;;;5.43;76.97;100576.64;126069;1302;176837;-76
2022/12/27 13:31:48;;;;;;;121.00;54.60;;;;;;;5.42;77.02;100572.05;126302;1291;107559;-76
2022/12/27 13:35:07;;;;;;;38.50;21.50;;;;;;;5.43;77.18;100576.82;126267;1297;108513;-76
2022/12/27 13:38:31;;;;;;;16.70;7.70;;;;;;;5.43;77.04;100583.45;126289;1295;107548;-76
2022/12/27 13:41:48;;;;;;;17.80;7.60;;;;;;;5.39;77.31;100589.05;126300;1301;108669;-76
2022/12/27 13:45:15;;;;;;;17.10;7.90;;;;;;;5.32;77.05;100595.89;126257;1301;107580;-76
2022/12/27 13:48:47;;;;;;;13.60;5.70;;;;;;;5.27;77.33;100596.95;126233;1301;107512;-76
2022/12/27 13:52:01;;;;;;;14.30;6.10;;;;;;;5.24;77.30;100601.81;126113;1301;107357;-76
2022/12/27 13:55:42;;;;;;;16.10;6.70;;;;;;;5.21;77.09;100602.00;126168;1302;106413;-76
2022/12/27 13:59:14;;;;;;;17.90;7.40;;;;;;;5.19;77.31;100605.17;126152;1307;106421;-75
2022/12/27 14:02:50;;;;;;;15.80;7.30;;;;;;;5.27;76.95;100608.11;126182;1301;107620;-76
2022/12/27 14:06:26;;;;;;;15.90;7.30;;;;;;;5.30;76.90;100616.19;126284;1302;107498;-77
2022/12/27 14:09:55;;;;;;;14.70;6.90;;;;;;;5.33;76.48;100621.24;126297;1295;107320;-76
2022/12/27 14:13:06;;;;;;;21.90;8.40;;;;;;;5.31;76.73;100622.95;126237;1302;108077;-76
2022/12/27 14:16:38;;;;;;;14.30;6.90;;;;;;;5.30;76.99;100624.49;126364;1295;107470;-76
2022/12/27 14:20:00;;;;;;;14.20;6.40;;;;;;;5.29;76.80;100628.73;126228;1300;107595;-76
2022/12/27 14:23:39;;;;;;;77.40;32.00;;;;;;;5.25;76.95;100631.30;126253;1306;106356;-75
2022/12/27 14:27:25;;;;;;;405.20;151.60;;;;;;;5.20;76.94;100628.20;126228;1301;107383;-76
2022/12/27 14:31:04;;;;;;;272.30;90.60;;;;;;;5.12;77.02;100629.81;126397;1295;107521;-76
2022/12/27 14:34:38;;;;;;;304.00;110.90;;;;;;;5.00;76.72;100632.27;125963;1301;107450;-77
2022/12/27 14:38:18;;;;;;;160.60;63.60;;;;;;;4.94;77.58;100636.70;126524;1295;108512;-75
2022/12/27 14:41:51;;;;;;;231.70;88.00;;;;;;;4.91;77.61;100633.04;126359;1301;108458;-76
2022/12/27 14:45:35;;;;;;;67.60;44.90;;;;;;;4.93;77.77;100632.35;126438;1295;107554;-75
2022/12/27 14:49:11;;;;;;;24.00;11.00;;;;;;;4.98;77.64;100636.03;126447;1301;107602;-75
2022/12/27 14:52:50;;;;;;;21.30;9.30;;;;;;;5.00;77.57;100637.90;126443;1301;107663;-77
2022/12/27 14:56:07;;;;;;;20.70;8.40;;;;;;;5.02;77.44;100639.86;126365;1301;107529;-77
2022/12/27 14:59:23;;;;;;;21.60;8.30;;;;;;;5.02;76.93;100653.63;126302;1301;107525;-78
2022/12/27 15:02:46;;;;;;;19.00;7.80;;;;;;;4.99;77.43;100656.45;126370;1293;107565;-76
2022/12/27 15:06:06;;;;;;;17.60;8.40;;;;;;;4.95;76.79;100656.78;126376;1301;107661;-78
2022/12/27 15:09:24;;;;;;;14.30;7.50;;;;;;;4.87;77.09;100657.29;126530;1291;107550;-77
2022/12/27 15:12:43;;;;;;;15.70;8.70;;;;;;;4.88;76.90;100659.66;126255;1291;107402;-76
2022/12/27 15:15:57;;;;;;;19.60;12.40;;;;;;;4.84;76.71;100659.23;126228;1277;107467;-76
2022/12/27 15:19:15;;;;;;;20.20;9.40;;;;;;;4.82;76.52;100665.73;126268;1287;107548;-76
2022/12/27 15:22:28;;;;;;;15.10;6.40;;;;;;;4.81;77.11;100666.34;126290;1290;107599;-76
2022/12/27 15:25:48;;;;;;;318.70;120.80;;;;;;;4.85;76.79;100664.65;126291;1295;107464;-76
2022/12/27 15:29:05;;;;;;;329.90;105.70;;;;;;;4.90;76.90;100666.23;126435;1295;107571;-77
2022/12/27 15:32:29;;;;;;;482.00;170.40;;;;;;;4.95;76.53;100664.84;126452;1301;107555;-76
2022/12/27 15:35:54;;;;;;;102.90;32.80;;;;;;;4.95;76.39;100660.96;126295;1295;107592;-76
2022/12/27 15:39:01;;;;;;;358.70;107.50;;;;;;;4.92;76.39;100652.73;126262;1297;108499;-76
2022/12/27 15:42:22;;;;;;;247.60;75.30;;;;;;;4.90;76.48;100655.14;126355;1302;107627;-78
2022/12/27 15:45:45;;;;;;;272.60;101.80;;;;;;;4.89;76.85;100655.08;126385;1302;107389;-76
2022/12/27 15:49:15;;;;;;;;;;;;;;;4.84;76.51;100657.14;126436;1302;108496;-77
2022/12/27 15:52:28;;;;;;;133.30;55.50;;;;;;;4.80;76.66;100657.59;126366;1302;107639;-76
2022/12/27 15:56:00;;;;;;;149.30;67.10;;;;;;;4.77;76.82;100662.36;126221;1301;108764;-75
2022/12/27 15:59:51;;;;;;;54.10;26.60;;;;;;;4.75;76.73;100664.33;126295;1295;107544;-76
2022/12/27 16:02:59;;;;;;;24.40;12.90;;;;;;;4.70;76.95;100669.21;125797;1300;107560;-77
2022/12/27 16:06:06;;;;;;;26.80;14.00;;;;;;;4.70;76.95;100673.06;126099;1301;107657;-76
2022/12/27 16:09:34;;;;;;;16.70;9.90;;;;;;;4.75;77.03;100674.02;126110;1301;107410;-76
2022/12/27 16:12:41;;;;;;;12.60;7.30;;;;;;;4.84;77.25;100673.05;126177;1302;107522;-76
2022/12/27 16:15:54;;;;;;;14.70;7.20;;;;;;;4.89;76.99;100671.06;126141;1302;108717;-75
2022/12/27 16:19:16;;;;;;;10.60;5.50;;;;;;;4.94;76.80;100676.24;126143;1301;107571;-75
2022/12/27 16:22:38;;;;;;;113.90;79.00;;;;;;;4.93;76.84;100682.24;126160;1301;107524;-75
2022/12/27 16:25:45;;;;;;;17.80;8.50;;;;;;;4.92;76.61;100679.52;126118;1301;107224;-76